Time;durP1;ratioP1;P1;durP2;ratioP2;P2;SDS_P1;SDS_P2;PMS_P1;PMS_P2;Temp;Humidity;BMP_temperature;BMP_pressure;BME280_temperature;BME280_humidity;BME280_pressure;Samples;Min_cycle;Max_cycle;Signal;HPM_P1;HPM_P2
2023/11/22 00:01:51;;;;;;;35.13;18.43;;;4.90;99.90;;;;;;5045925;28;20297;-56
2023/11/22 00:04:19;;;;;;;38.67;18.57;;;4.90;99.90;;;;;;5050567;28;20200;-54
2023/11/22 00:06:49;;;;;;;39.47;18.73;;;4.80;99.90;;;;;;5043828;28;20216;-54
2023/11/22 00:09:22;;;;;;;38.83;19.37;;;4.80;99.90;;;;;;5051300;28;20227;-55
2023/11/22 00:11:50;;;;;;;37.53;18.53;;;4.80;99.90;;;;;;5041731;28;20626;-54
2023/11/22 00:14:18;;;;;;;37.77;18.53;;;4.80;99.90;;;;;;5047985;28;20229;-56
2023/11/22 00:16:47;;;;;;;35.50;17.57;;;4.70;99.90;;;;;;5048731;28;20220;-54
2023/11/22 00:19:18;;;;;;;38.83;18.57;;;4.70;99.90;;;;;;5052058;28;20753;-55
2023/11/22 00:21:46;;;;;;;41.60;18.73;;;4.60;99.90;;;;;;5044687;28;20217;-54
2023/11/22 00:24:15;;;;;;;38.60;18.77;;;4.60;99.90;;;;;;5052612;28;20843;-54
2023/11/22 00:26:42;;;;;;;34.13;18.07;;;4.50;99.90;;;;;;5053056;28;20756;-53
2023/11/22 00:29:11;;;;;;;38.47;18.17;;;4.50;99.90;;;;;;5051865;28;20590;-57
2023/11/22 00:31:42;;;;;;;41.73;20.00;;;4.40;99.90;;;;;;5048018;28;20255;-55
2023/11/22 00:34:11;;;;;;;40.77;19.63;;;4.40;99.90;;;;;;5051063;28;20555;-56
2023/11/22 00:36:39;;;;;;;38.63;18.53;;;4.40;99.90;;;;;;5037816;28;20244;-55
2023/11/22 00:39:09;;;;;;;42.37;19.23;;;4.40;99.90;;;;;;5050711;28;20217;-54
2023/11/22 00:41:38;;;;;;;47.47;19.47;;;4.40;99.90;;;;;;5049514;28;20754;-56
2023/11/22 00:44:07;;;;;;;41.87;18.90;;;4.40;99.90;;;;;;5050794;28;20224;-55
2023/11/22 00:46:37;;;;;;;42.73;19.77;;;4.40;99.90;;;;;;5053235;28;20189;-55
2023/11/22 00:49:05;;;;;;;41.27;19.23;;;4.40;99.90;;;;;;5051197;28;20560;-56
2023/11/22 00:51:34;;;;;;;41.27;19.20;;;4.40;99.90;;;;;;5041861;28;20232;-54
2023/11/22 00:54:02;;;;;;;42.23;18.87;;;4.30;99.90;;;;;;5044840;28;20216;-55
2023/11/22 00:56:30;;;;;;;43.30;19.37;;;4.30;99.90;;;;;;5047186;28;20228;-53
2023/11/22 00:59:02;;;;;;;39.90;18.53;;;4.20;99.90;;;;;;5050051;28;20271;-55
2023/11/22 01:01:31;;;;;;;40.30;18.40;;;4.20;99.90;;;;;;5041312;28;20263;-55
2023/11/22 01:04:00;;;;;;;39.60;18.73;;;4.10;99.90;;;;;;5048777;28;20307;-55
2023/11/22 01:06:30;;;;;;;37.93;18.30;;;4.00;99.90;;;;;;5049686;28;20224;-55
2023/11/22 01:08:58;;;;;;;40.27;19.30;;;4.00;99.90;;;;;;5045304;28;20221;-55
2023/11/22 01:11:28;;;;;;;39.57;18.37;;;4.00;99.90;;;;;;5041248;28;20222;-57
2023/11/22 01:13:56;;;;;;;42.83;18.60;;;4.00;99.90;;;;;;5041282;28;20197;-54
2023/11/22 01:16:27;;;;;;;40.00;18.63;;;3.90;99.90;;;;;;5050186;28;20880;-56
2023/11/22 01:18:55;;;;;;;37.50;17.83;;;3.90;99.90;;;;;;5047695;28;20235;-56
2023/11/22 01:21:23;;;;;;;38.87;17.83;;;3.90;99.90;;;;;;5047547;28;20244;-56
2023/11/22 01:23:52;;;;;;;42.27;18.53;;;3.80;99.90;;;;;;5044901;28;20217;-55
2023/11/22 01:26:20;;;;;;;43.83;20.00;;;3.80;99.90;;;;;;5044055;28;20683;-56
2023/11/22 01:28:48;;;;;;;44.63;18.33;;;3.70;99.90;;;;;;5043879;28;20193;-55
2023/11/22 01:31:20;;;;;;;38.30;18.97;;;3.70;99.90;;;;;;5044855;28;20219;-56
2023/11/22 01:33:50;;;;;;;44.63;17.93;;;3.70;99.90;;;;;;5043877;28;20675;-55
2023/11/22 01:36:18;;;;;;;43.27;18.17;;;3.70;99.90;;;;;;5042188;28;20221;-56
2023/11/22 01:38:47;;;;;;;38.37;17.30;;;3.60;99.90;;;;;;5039982;28;20219;-55
2023/11/22 01:41:15;;;;;;;42.53;18.40;;;3.60;99.90;;;;;;5037349;28;20309;-55
2023/11/22 01:43:43;;;;;;;39.20;17.47;;;3.60;99.90;;;;;;5041578;28;20200;-55
2023/11/22 01:46:22;;;;;;;40.23;17.83;;;3.50;99.90;;;;;;5043107;28;20198;-56
2023/11/22 01:48:54;;;;;;;43.30;18.77;;;3.50;99.90;;;;;;5041745;28;20544;-54
2023/11/22 01:51:23;;;;;;;40.27;17.90;;;3.50;99.90;;;;;;5044677;28;20216;-55
2023/11/22 01:53:55;;;;;;;41.00;18.80;;;3.40;99.90;;;;;;5045118;28;20239;-56
2023/11/22 01:56:26;;;;;;;42.30;17.47;;;3.40;99.90;;;;;;5043155;28;20843;-54
2023/11/22 01:58:56;;;;;;;36.27;16.87;;;3.40;99.90;;;;;;5037300;28;20193;-54
2023/11/22 02:01:28;;;;;;;43.73;18.47;;;3.30;99.90;;;;;;5044619;28;20220;-54
2023/11/22 02:03:57;;;;;;;41.57;17.90;;;3.30;99.90;;;;;;5043770;28;20275;-55
2023/11/22 02:06:26;;;;;;;45.90;18.73;;;3.30;99.90;;;;;;5041220;28;20342;-56
2023/11/22 02:08:55;;;;;;;47.13;19.43;;;3.20;99.90;;;;;;5046629;28;20230;-54
2023/11/22 02:11:24;;;;;;;40.80;18.03;;;3.20;99.90;;;;;;5044640;28;20317;-54
2023/11/22 02:13:52;;;;;;;41.13;18.20;;;3.20;99.90;;;;;;5049579;28;20220;-55
2023/11/22 02:16:21;;;;;;;47.73;18.93;;;3.20;99.90;;;;;;5047297;28;20225;-55
2023/11/22 02:18:50;;;;;;;40.20;18.47;;;3.20;99.90;;;;;;5041455;28;20217;-55
2023/11/22 02:21:21;;;;;;;51.47;18.80;;;3.10;99.90;;;;;;5043682;28;20232;-54
2023/11/22 02:23:51;;;;;;;47.23;19.53;;;3.10;99.90;;;;;;5052916;28;20221;-56
2023/11/22 02:26:19;;;;;;;44.00;18.13;;;3.10;99.90;;;;;;5050519;28;20244;-56
2023/11/22 02:28:47;;;;;;;38.77;17.13;;;3.10;99.90;;;;;;5051699;28;20234;-54
2023/11/22 02:31:16;;;;;;;36.80;16.83;;;3.00;99.90;;;;;;5042644;28;20197;-55
2023/11/22 02:33:44;;;;;;;38.47;17.17;;;2.90;99.90;;;;;;5054424;28;20228;-53
2023/11/22 02:36:13;;;;;;;41.27;17.10;;;2.90;99.90;;;;;;5045618;28;20232;-55
2023/11/22 02:38:42;;;;;;;41.87;16.10;;;2.90;99.90;;;;;;5042086;28;20275;-58
2023/11/22 02:41:13;;;;;;;37.67;15.67;;;2.80;99.90;;;;;;5045063;28;20590;-55
2023/11/22 02:43:42;;;;;;;35.13;15.47;;;2.80;99.90;;;;;;5051771;28;20192;-56
2023/11/22 02:46:10;;;;;;;31.00;14.30;;;2.70;99.90;;;;;;5038784;28;20309;-54
2023/11/22 02:48:38;;;;;;;33.73;15.47;;;2.60;99.90;;;;;;5044704;28;20312;-54
2023/11/22 02:51:07;;;;;;;34.27;15.40;;;2.60;99.90;;;;;;5050489;28;20620;-54
2023/11/22 02:53:35;;;;;;;33.63;15.67;;;2.60;99.90;;;;;;5052740;28;20232;-55
2023/11/22 02:56:05;;;;;;;36.73;15.63;;;2.50;99.90;;;;;;5046925;28;20279;-54
2023/11/22 02:58:34;;;;;;;38.67;16.97;;;2.60;99.90;;;;;;5046545;28;20228;-56
2023/11/22 03:01:05;;;;;;;41.57;17.07;;;2.60;99.90;;;;;;5052593;28;20209;-55
2023/11/22 03:03:33;;;;;;;37.17;16.23;;;2.60;99.90;;;;;;5047508;28;20220;-56
2023/11/22 03:06:01;;;;;;;44.53;16.90;;;2.50;99.90;;;;;;5048063;28;20209;-54
2023/11/22 03:08:30;;;;;;;33.90;14.63;;;2.50;99.90;;;;;;5050548;28;20573;-55
2023/11/22 03:10:58;;;;;;;38.93;16.00;;;2.40;99.90;;;;;;5049984;28;20582;-52
2023/11/22 03:13:26;;;;;;;42.00;15.70;;;2.40;99.90;;;;;;5053195;28;20224;-56
2023/11/22 03:15:56;;;;;;;36.37;16.13;;;2.40;99.90;;;;;;5050955;28;20234;-55
2023/11/22 03:18:26;;;;;;;29.20;13.87;;;2.30;99.90;;;;;;5051670;28;20248;-55
2023/11/22 03:20:55;;;;;;;35.97;14.90;;;2.30;99.90;;;;;;5052452;28;20247;-54
2023/11/22 03:23:23;;;;;;;38.43;16.10;;;2.20;99.90;;;;;;5049349;28;20239;-54
2023/11/22 03:25:51;;;;;;;42.17;16.50;;;2.20;99.90;;;;;;5047405;28;20243;-54
2023/11/22 03:28:19;;;;;;;41.67;16.23;;;2.10;99.90;;;;;;5048595;28;20189;-54
2023/11/22 03:30:48;;;;;;;48.80;17.60;;;2.10;99.90;;;;;;5046836;28;20216;-55
2023/11/22 03:33:17;;;;;;;42.10;17.80;;;;;;;;;;5050671;28;20229;-53
2023/11/22 03:35:46;;;;;;;38.97;16.90;;;2.10;99.90;;;;;;5046898;28;20216;-56
2023/11/22 03:38:14;;;;;;;40.70;17.23;;;2.00;99.90;;;;;;5046216;28;20725;-54
2023/11/22 03:40:42;;;;;;;45.53;17.57;;;2.00;99.90;;;;;;5052347;28;20574;-56
2023/11/22 03:43:10;;;;;;;39.73;16.67;;;2.00;99.90;;;;;;5053069;28;20224;-57
2023/11/22 03:45:38;;;;;;;40.50;17.73;;;2.00;99.90;;;;;;5048350;28;20219;-55
2023/11/22 03:48:07;;;;;;;43.60;17.97;;;2.00;99.90;;;;;;5045112;28;20228;-55
2023/11/22 03:50:39;;;;;;;53.60;19.27;;;2.00;99.90;;;;;;5048054;28;20274;-53
2023/11/22 03:53:07;;;;;;;52.03;19.63;;;2.00;99.90;;;;;;5047242;28;20224;-54
2023/11/22 03:55:36;;;;;;;47.10;18.53;;;2.10;99.90;;;;;;5053109;28;20827;-56
2023/11/22 03:58:04;;;;;;;43.33;17.43;;;2.10;99.90;;;;;;5049651;28;20243;-56
2023/11/22 04:00:32;;;;;;;44.90;17.93;;;2.10;99.90;;;;;;5050225;28;20227;-55
2023/11/22 04:03:01;;;;;;;43.23;17.57;;;2.00;99.90;;;;;;5048967;28;20882;-56
2023/11/22 04:05:30;;;;;;;48.13;19.27;;;2.00;99.90;;;;;;5043332;28;20299;-56
2023/11/22 04:08:00;;;;;;;52.67;18.43;;;2.00;99.90;;;;;;5043579;28;20196;-56
2023/11/22 04:10:28;;;;;;;52.23;19.03;;;2.00;99.90;;;;;;5049432;28;20193;-55
2023/11/22 04:12:56;;;;;;;47.67;18.23;;;2.10;99.90;;;;;;5052816;28;20694;-55
2023/11/22 04:15:25;;;;;;;47.03;18.10;;;2.10;99.90;;;;;;5039007;28;20615;-55
2023/11/22 04:17:55;;;;;;;49.10;17.17;;;2.10;99.90;;;;;;5051358;28;20755;-56
2023/11/22 04:20:23;;;;;;;46.73;18.03;;;2.10;99.90;;;;;;5052191;28;20560;-55
2023/11/22 04:22:52;;;;;;;44.87;16.50;;;2.10;99.90;;;;;;5043469;28;20317;-56
2023/11/22 04:25:21;;;;;;;48.07;18.20;;;2.10;99.90;;;;;;5042531;28;20185;-56
2023/11/22 04:27:49;;;;;;;47.23;19.03;;;2.10;99.90;;;;;;5046833;28;20213;-55
2023/11/22 04:30:18;;;;;;;50.17;18.63;;;2.20;99.90;;;;;;5047733;28;20225;-56
2023/11/22 04:32:46;;;;;;;51.63;19.20;;;2.20;99.90;;;;;;5049179;28;20225;-56
2023/11/22 04:35:15;;;;;;;54.80;19.27;;;2.30;99.90;;;;;;5052559;28;20224;-56
2023/11/22 04:37:43;;;;;;;42.77;18.27;;;2.30;99.90;;;;;;5044732;28;20538;-55
2023/11/22 04:40:14;;;;;;;48.60;18.80;;;2.30;99.90;;;;;;5046064;28;20201;-55
2023/11/22 04:42:44;;;;;;;52.53;19.27;;;2.40;99.90;;;;;;5044599;28;20696;-55
2023/11/22 04:45:13;;;;;;;52.43;19.33;;;2.50;99.90;;;;;;5049370;28;20605;-56
2023/11/22 04:47:41;;;;;;;48.90;19.03;;;2.60;99.90;;;;;;5044972;28;20225;-53
2023/11/22 04:50:10;;;;;;;49.67;19.90;;;2.60;99.90;;;;;;5047334;28;20290;-56
2023/11/22 04:52:39;;;;;;;50.90;19.53;;;2.60;99.90;;;;;;5047023;28;20626;-55
2023/11/22 04:55:08;;;;;;;53.77;19.73;;;2.60;99.90;;;;;;5048857;28;20213;-53
2023/11/22 04:57:36;;;;;;;51.80;19.50;;;2.70;99.90;;;;;;5046103;28;20224;-53
2023/11/22 05:00:07;;;;;;;55.30;20.07;;;2.70;99.90;;;;;;5052250;28;20212;-55
2023/11/22 05:02:36;;;;;;;52.87;19.77;;;2.80;99.90;;;;;;5042759;28;20235;-56
2023/11/22 05:05:05;;;;;;;51.67;19.67;;;2.80;99.90;;;;;;5047274;28;20221;-55
2023/11/22 05:07:33;;;;;;;49.43;20.10;;;2.80;99.90;;;;;;5047616;28;20219;-56
2023/11/22 05:10:02;;;;;;;52.27;19.63;;;2.80;99.90;;;;;;5037975;28;20687;-55
2023/11/22 05:12:31;;;;;;;44.93;19.03;;;2.80;99.90;;;;;;5040523;28;20557;-55
2023/11/22 05:14:59;;;;;;;61.57;21.33;;;2.70;99.90;;;;;;5037730;28;20221;-55
2023/11/22 05:17:29;;;;;;;52.37;19.50;;;2.70;99.90;;;;;;5044367;28;20224;-54
2023/11/22 05:19:57;;;;;;;59.73;20.63;;;2.70;99.90;;;;;;5039641;28;20294;-55
2023/11/22 05:22:25;;;;;;;54.17;20.30;;;2.70;99.90;;;;;;5042106;28;20193;-55
2023/11/22 05:24:54;;;;;;;59.97;19.93;;;2.70;99.90;;;;;;5045285;28;20233;-55
2023/11/22 05:27:22;;;;;;;55.70;19.60;;;2.70;99.90;;;;;;5042119;28;20255;-55
2023/11/22 05:29:50;;;;;;;58.47;19.93;;;2.70;99.90;;;;;;5048009;28;20212;-53
2023/11/22 05:32:22;;;;;;;52.97;19.73;;;2.60;99.90;;;;;;5045537;28;20291;-55
2023/11/22 05:34:52;;;;;;;54.57;19.70;;;2.60;99.90;;;;;;5046926;28;20516;-56
2023/11/22 05:37:21;;;;;;;51.03;19.63;;;2.60;99.90;;;;;;5045234;28;20193;-56
2023/11/22 05:39:51;;;;;;;53.73;19.57;;;2.50;99.90;;;;;;5044771;28;20567;-54
2023/11/22 05:42:20;;;;;;;52.03;20.73;;;2.50;99.90;;;;;;5038468;28;20221;-55
2023/11/22 05:44:49;;;;;;;46.00;18.63;;;2.40;99.90;;;;;;5049920;28;20307;-56
2023/11/22 05:47:18;;;;;;;50.50;18.30;;;2.40;99.90;;;;;;5048632;28;20236;-55
2023/11/22 05:49:46;;;;;;;48.63;18.40;;;2.40;99.90;;;;;;5043720;28;20208;-55
2023/11/22 05:52:16;;;;;;;50.63;18.20;;;2.40;99.90;;;;;;5049479;28;20189;-55
2023/11/22 05:54:44;;;;;;;48.63;19.27;;;2.30;99.90;;;;;;5051675;28;20212;-56
2023/11/22 05:57:13;;;;;;;51.77;18.73;;;2.30;99.90;;;;;;5047566;28;20224;-55
2023/11/22 05:59:41;;;;;;;54.23;18.40;;;2.30;99.90;;;;;;5048686;28;20830;-55
2023/11/22 06:02:09;;;;;;;54.93;19.43;;;2.40;99.90;;;;;;5047511;28;20220;-55
2023/11/22 06:04:39;;;;;;;49.40;19.13;;;2.40;99.90;;;;;;5055333;28;20238;-56
2023/11/22 06:07:09;;;;;;;64.20;20.03;;;2.50;99.90;;;;;;5050060;28;20692;-54
2023/11/22 06:09:39;;;;;;;51.80;20.23;;;2.50;99.90;;;;;;5053067;28;20307;-54
2023/11/22 06:12:08;;;;;;;53.30;20.60;;;2.50;99.90;;;;;;5049674;28;20270;-56
2023/11/22 06:14:36;;;;;;;58.33;22.17;;;2.60;99.90;;;;;;5045176;28;20725;-55
2023/11/22 06:17:05;;;;;;;64.90;20.90;;;2.60;99.90;;;;;;5051159;28;20236;-55
2023/11/22 06:19:33;;;;;;;59.20;21.37;;;2.70;99.90;;;;;;5048197;28;20192;-56
2023/11/22 06:22:02;;;;;;;56.17;21.13;;;2.70;99.90;;;;;;5041016;28;20243;-56
2023/11/22 06:24:33;;;;;;;63.87;23.67;;;2.70;99.90;;;;;;5046519;28;20251;-55
2023/11/22 06:27:03;;;;;;;63.20;22.97;;;2.70;99.90;;;;;;5052178;28;20552;-54
2023/11/22 06:29:31;;;;;;;64.77;22.33;;;2.80;99.90;;;;;;5051126;28;20214;-54
2023/11/22 06:31:59;;;;;;;62.33;21.63;;;2.90;99.90;;;;;;5055668;28;20192;-55
2023/11/22 06:34:27;;;;;;;55.03;21.20;;;2.90;99.90;;;;;;5038557;28;20299;-56
2023/11/22 06:36:56;;;;;;;61.77;21.67;;;2.90;99.90;;;;;;5048339;28;20240;-56
2023/11/22 06:39:25;;;;;;;53.87;20.97;;;2.90;99.90;;;;;;5044532;28;20227;-55
2023/11/22 06:41:53;;;;;;;56.23;20.40;;;2.90;99.90;;;;;;5049554;28;20217;-55
2023/11/22 06:44:23;;;;;;;50.70;18.90;;;2.90;99.90;;;;;;5049151;28;20221;-54
2023/11/22 06:46:52;;;;;;;50.93;19.27;;;2.90;99.90;;;;;;5048549;28;20228;-54
2023/11/22 06:49:20;;;;;;;58.17;19.43;;;2.90;99.90;;;;;;5044486;28;20698;-54
2023/11/22 06:51:48;;;;;;;52.73;19.87;;;2.90;99.90;;;;;;5051511;28;20310;-54
2023/11/22 06:54:16;;;;;;;53.17;19.20;;;2.90;99.90;;;;;;5052474;28;20220;-52
2023/11/22 06:56:45;;;;;;;55.37;20.20;;;2.90;99.90;;;;;;5049520;28;20212;-55
2023/11/22 06:59:14;;;;;;;64.90;21.93;;;2.80;99.90;;;;;;5052710;28;20227;-55
2023/11/22 07:01:43;;;;;;;62.30;23.27;;;2.80;99.90;;;;;;5050286;28;20288;-53
2023/11/22 07:04:12;;;;;;;63.10;25.20;;;2.90;99.90;;;;;;5052856;28;20305;-56
2023/11/22 07:06:42;;;;;;;73.33;28.37;;;2.90;99.90;;;;;;5035868;28;20769;-55
2023/11/22 07:09:11;;;;;;;78.10;27.10;;;2.90;99.90;;;;;;5046563;28;20270;-55
2023/11/22 07:11:39;;;;;;;67.97;24.03;;;2.90;99.90;;;;;;5053592;28;20258;-55
2023/11/22 07:14:08;;;;;;;62.47;22.40;;;2.90;99.90;;;;;;5049181;28;20228;-55
2023/11/22 07:16:37;;;;;;;58.23;22.07;;;2.90;99.90;;;;;;5045816;28;20239;-54
2023/11/22 07:19:06;;;;;;;56.70;20.33;;;3.00;99.90;;;;;;5048173;28;20228;-54
2023/11/22 07:21:37;;;;;;;55.47;20.63;;;3.00;99.90;;;;;;5048360;28;20227;-54
2023/11/22 07:24:08;;;;;;;56.20;19.67;;;2.90;99.90;;;;;;5041921;28;20229;-54
2023/11/22 07:26:37;;;;;;;51.50;19.03;;;3.00;99.90;;;;;;5052382;28;20642;-54
2023/11/22 07:29:06;;;;;;;50.57;20.00;;;3.00;99.90;;;;;;5049988;28;20229;-55
2023/11/22 07:31:37;;;;;;;65.53;23.27;;;3.10;99.90;;;;;;5048405;28;20193;-53
2023/11/22 07:34:08;;;;;;;58.90;22.37;;;3.10;99.90;;;;;;5048870;28;20576;-55
2023/11/22 07:36:37;;;;;;;54.10;21.20;;;3.20;99.90;;;;;;5043997;28;20225;-56
2023/11/22 07:39:06;;;;;;;61.53;22.13;;;3.20;99.90;;;;;;5046446;28;20254;-55
2023/11/22 07:41:34;;;;;;;55.57;21.13;;;3.30;99.90;;;;;;5047233;28;20229;-55
2023/11/22 07:44:03;;;;;;;58.00;20.73;;;3.30;99.90;;;;;;5047309;28;20228;-55
2023/11/22 07:46:32;;;;;;;59.17;22.03;;;3.30;99.90;;;;;;5050615;28;20710;-52
2023/11/22 07:49:00;;;;;;;59.23;21.93;;;3.40;99.90;;;;;;5052509;28;20224;-55
2023/11/22 07:51:30;;;;;;;58.33;22.00;;;3.40;99.90;;;;;;5047561;28;20247;-55
2023/11/22 07:53:58;;;;;;;67.80;22.33;;;3.50;99.90;;;;;;5049315;28;20221;-55
2023/11/22 07:56:26;;;;;;;63.83;23.40;;;3.60;99.90;;;;;;5053116;28;20233;-56
2023/11/22 07:58:54;;;;;;;61.03;22.80;;;3.60;99.90;;;;;;5051421;28;20193;-56
2023/11/22 08:01:23;;;;;;;55.27;21.53;;;3.70;99.90;;;;;;5050868;28;20200;-54
2023/11/22 08:03:51;;;;;;;58.07;22.83;;;3.80;99.90;;;;;;5038940;28;20638;-54
2023/11/22 08:06:20;;;;;;;61.20;22.70;;;3.80;99.90;;;;;;5038943;28;20213;-63
2023/11/22 08:08:51;;;;;;;60.40;21.53;;;3.90;99.90;;;;;;5039049;28;20217;-63
2023/11/22 08:11:20;;;;;;;64.40;22.13;;;3.90;99.90;;;;;;5041206;28;20232;-63
2023/11/22 08:13:48;;;;;;;63.40;23.23;;;4.00;99.90;;;;;;5046093;28;20185;-61
2023/11/22 08:16:19;;;;;;;61.03;23.13;;;4.00;99.90;;;;;;5044338;28;21037;-63
2023/11/22 08:18:48;;;;;;;64.90;23.80;;;4.00;99.90;;;;;;5044669;28;20213;-63
2023/11/22 08:21:17;;;;;;;61.57;22.00;;;4.10;99.90;;;;;;5038252;28;20225;-63
2023/11/22 08:23:46;;;;;;;61.47;22.00;;;4.10;99.90;;;;;;5040641;28;20221;-63
2023/11/22 08:26:16;;;;;;;69.30;25.00;;;4.10;99.90;;;;;;5044334;28;20216;-63
2023/11/22 08:28:44;;;;;;;68.23;25.13;;;4.20;99.90;;;;;;5038217;28;20213;-62
2023/11/22 08:31:13;;;;;;;76.13;24.60;;;5.70;99.90;;;;;;5038262;28;20193;-64
2023/11/22 08:33:41;;;;;;;65.17;24.80;;;4.50;99.90;;;;;;5036696;28;20216;-63
2023/11/22 08:36:10;;;;;;;63.17;23.73;;;4.60;99.90;;;;;;5041691;28;20576;-63
2023/11/22 08:38:40;;;;;;;72.47;26.87;;;4.70;99.90;;;;;;5041146;28;20209;-63
2023/11/22 08:41:13;;;;;;;76.33;28.20;;;4.80;99.90;;;;;;5034443;28;20225;-63
2023/11/22 08:43:43;;;;;;;73.20;25.70;;;;;;;;;;5042504;28;20505;-63
2023/11/22 08:46:11;;;;;;;104.50;29.77;;;4.90;99.90;;;;;;5045078;28;20233;-63
2023/11/22 08:48:42;;;;;;;118.13;34.40;;;;;;;;;;5039450;28;20245;-63
2023/11/22 08:51:12;;;;;;;116.33;34.17;;;4.80;99.90;;;;;;5040003;28;20567;-63
2023/11/22 08:53:42;;;;;;;111.53;34.13;;;4.90;99.90;;;;;;5038728;28;20216;-63
2023/11/22 08:56:11;;;;;;;118.23;35.40;;;4.80;99.90;;;;;;5042475;28;20235;-63
2023/11/22 08:58:43;;;;;;;112.50;33.60;;;4.80;99.90;;;;;;5039674;28;20200;-63
2023/11/22 09:01:14;;;;;;;114.47;33.17;;;4.80;99.90;;;;;;5038513;28;20228;-63
2023/11/22 09:03:44;;;;;;;108.43;31.60;;;4.90;99.90;;;;;;5038649;28;20229;-63
2023/11/22 09:06:12;;;;;;;102.10;30.87;;;4.90;99.90;;;;;;5038753;28;20223;-63
2023/11/22 09:08:41;;;;;;;103.50;33.57;;;5.00;99.90;;;;;;5040194;28;20213;-63
2023/11/22 09:11:09;;;;;;;103.10;34.03;;;5.10;99.90;;;;;;5039554;28;20221;-63
2023/11/22 09:13:39;;;;;;;97.83;31.97;;;5.00;99.90;;;;;;5040033;28;20221;-63
2023/11/22 09:16:10;;;;;;;108.67;32.83;;;5.10;99.90;;;;;;5039390;28;20231;-63
2023/11/22 09:18:38;;;;;;;102.23;31.97;;;5.20;99.90;;;;;;5039825;28;20233;-63
2023/11/22 09:21:08;;;;;;;97.20;30.67;;;5.30;99.90;;;;;;5038196;28;20221;-63
2023/11/22 09:23:37;;;;;;;106.87;33.60;;;5.40;99.90;;;;;;5037251;28;20225;-63
2023/11/22 09:26:05;;;;;;;95.10;32.10;;;5.50;99.90;;;;;;5037998;28;20306;-63
2023/11/22 09:28:33;;;;;;;90.37;31.60;;;5.50;99.90;;;;;;5037822;28;20656;-63
2023/11/22 09:31:05;;;;;;;89.30;32.47;;;5.40;99.90;;;;;;5036176;28;20220;-63
2023/11/22 09:33:36;;;;;;;92.43;32.23;;;5.40;99.90;;;;;;5035740;28;20710;-63
2023/11/22 09:36:07;;;;;;;91.77;31.43;;;5.40;99.90;;;;;;5039212;28;20223;-63
2023/11/22 09:38:38;;;;;;;89.53;31.53;;;5.30;99.90;;;;;;5038125;28;20229;-64
2023/11/22 09:41:08;;;;;;;95.77;31.20;;;5.30;99.90;;;;;;5039106;28;20239;-63
2023/11/22 09:43:39;;;;;;;83.07;29.83;;;5.30;99.90;;;;;;5042218;28;20231;-63
2023/11/22 09:46:11;;;;;;;92.50;30.60;;;5.30;99.90;;;;;;5040432;28;20217;-63
2023/11/22 09:48:46;;;;;;;80.63;29.37;;;5.30;99.90;;;;;;5039155;28;20714;-63
2023/11/22 09:51:23;;;;;;;81.70;28.30;;;5.30;99.90;;;;;;5040336;28;20235;-63
2023/11/22 09:53:58;;;;;;;82.37;29.47;;;5.30;99.90;;;;;;5040037;28;20220;-63
2023/11/22 09:56:27;;;;;;;84.43;28.20;;;5.40;99.90;;;;;;5041065;28;20220;-63
2023/11/22 09:58:56;;;;;;;71.10;27.10;;;5.30;99.90;;;;;;5039678;28;20265;-63
2023/11/22 10:01:27;;;;;;;79.00;25.67;;;5.30;99.90;;;;;;5041999;28;20189;-63
2023/11/22 10:03:58;;;;;;;74.57;26.93;;;5.20;99.90;;;;;;5037085;28;20222;-63
2023/11/22 10:06:33;;;;;;;67.97;26.87;;;5.20;99.90;;;;;;5027050;28;20217;-63
2023/11/22 10:09:05;;;;;;;67.07;25.73;;;5.40;99.90;;;;;;5038977;28;20220;-63
2023/11/22 10:11:36;;;;;;;64.27;25.60;;;5.30;99.90;;;;;;5039926;28;20730;-64
2023/11/22 10:14:04;;;;;;;62.17;24.80;;;5.20;99.90;;;;;;5039412;28;20549;-63
2023/11/22 10:16:32;;;;;;;66.00;25.67;;;5.20;99.90;;;;;;5040641;28;20598;-64
2023/11/22 10:19:02;;;;;;;73.20;25.90;;;5.30;99.90;;;;;;5044547;28;20208;-63
2023/11/22 10:21:31;;;;;;;77.63;27.87;;;5.40;99.90;;;;;;5037992;28;20400;-63
2023/11/22 10:24:03;;;;;;;67.90;25.40;;;5.50;99.90;;;;;;5040192;28;20275;-63
2023/11/22 10:26:32;;;;;;;64.73;26.87;;;5.50;99.90;;;;;;5039496;28;20675;-63
2023/11/22 10:29:02;;;;;;;58.73;23.50;;;5.60;99.90;;;;;;5040722;28;21047;-63
2023/11/22 10:31:30;;;;;;;57.73;24.33;;;5.60;99.90;;;;;;5036889;28;20279;-63
2023/11/22 10:34:03;;;;;;;65.23;25.57;;;5.60;99.90;;;;;;5038040;28;20255;-63
2023/11/22 10:36:32;;;;;;;60.77;24.60;;;;;;;;;;5032953;28;20221;-63
2023/11/22 10:39:00;;;;;;;57.87;24.53;;;5.60;99.90;;;;;;5040769;28;20220;-63
2023/11/22 10:41:32;;;;;;;54.73;23.67;;;5.70;99.90;;;;;;5039569;28;20223;-63
2023/11/22 10:44:03;;;;;;;55.53;25.00;;;5.70;99.90;;;;;;5041254;28;20251;-63
2023/11/22 10:46:32;;;;;;;57.93;23.93;;;5.70;99.90;;;;;;5043301;28;20535;-64
2023/11/22 10:49:01;;;;;;;56.87;25.13;;;5.80;99.90;;;;;;5042110;28;20217;-63
2023/11/22 10:51:33;;;;;;;46.57;21.40;;;5.80;99.90;;;;;;5040227;28;20220;-63
2023/11/22 10:54:03;;;;;;;52.07;23.63;;;5.90;99.90;;;;;;5043493;28;20213;-63
2023/11/22 10:56:38;;;;;;;52.27;23.77;;;5.90;99.90;;;;;;5043773;28;20305;-63
2023/11/22 10:59:13;;;;;;;52.50;24.60;;;5.90;99.90;;;;;;5046306;28;20227;-63
2023/11/22 11:01:46;;;;;;;50.33;25.13;;;5.90;99.90;;;;;;5042023;28;20192;-63
2023/11/22 11:04:21;;;;;;;52.00;24.13;;;5.90;99.90;;;;;;5047427;28;20262;-63
2023/11/22 11:06:55;;;;;;;58.67;25.63;;;6.00;99.90;;;;;;5046213;28;20578;-63
2023/11/22 11:09:26;;;;;;;59.53;25.47;;;6.10;99.90;;;;;;5038014;28;20235;-63
2023/11/22 11:11:57;;;;;;;52.93;25.10;;;6.00;99.90;;;;;;5040200;28;20212;-63
2023/11/22 11:14:26;;;;;;;55.90;25.07;;;6.10;99.90;;;;;;5042998;28;20795;-63
2023/11/22 11:16:58;;;;;;;49.97;23.80;;;6.00;99.90;;;;;;5040878;28;20697;-62
2023/11/22 11:19:30;;;;;;;50.43;23.10;;;6.00;99.90;;;;;;5071653;28;20192;-63
2023/11/22 11:22:01;;;;;;;52.33;23.97;;;;;;;;;;5041365;28;20224;-63
2023/11/22 11:24:29;;;;;;;42.63;20.87;;;6.10;99.90;;;;;;5041781;28;20256;-63
2023/11/22 11:27:07;;;;;;;45.20;21.87;;;6.20;99.90;;;;;;5042406;28;20209;-63
2023/11/22 11:29:40;;;;;;;46.73;22.10;;;6.30;99.90;;;;;;5041747;28;20937;-63
2023/11/22 11:32:13;;;;;;;42.23;21.33;;;6.20;99.90;;;;;;5039239;28;20227;-64
2023/11/22 11:34:51;;;;;;;36.50;19.23;;;6.30;99.90;;;;;;5041071;28;20193;-64
2023/11/22 11:37:20;;;;;;;40.27;20.00;;;6.20;99.90;;;;;;5039828;28;20733;-62
2023/11/22 11:39:49;;;;;;;38.23;19.20;;;6.20;99.90;;;;;;5042224;28;20283;-63
2023/11/22 11:42:18;;;;;;;36.53;19.43;;;6.10;99.90;;;;;;5037801;28;20226;-63
2023/11/22 11:45:05;;;;;;;38.77;20.00;;;6.10;99.90;;;;;;5043389;28;20228;-63
2023/11/22 11:47:33;;;;;;;38.20;19.60;;;6.10;99.90;;;;;;5040422;28;20271;-63
2023/11/22 11:50:04;;;;;;;40.17;19.83;;;6.20;99.90;;;;;;5039313;28;20572;-63
2023/11/22 11:52:35;;;;;;;35.20;18.07;;;6.50;99.90;;;;;;5041496;28;20196;-63
2023/11/22 11:55:05;;;;;;;33.20;18.10;;;6.70;99.90;;;;;;5043681;28;20266;-63
2023/11/22 11:57:33;;;;;;;31.53;18.10;;;6.70;99.90;;;;;;5042109;28;20228;-63
2023/11/22 12:00:03;;;;;;;32.73;17.47;;;6.70;99.90;;;;;;5038888;28;20549;-63
2023/11/22 12:02:32;;;;;;;31.90;17.13;;;6.70;99.90;;;;;;5043426;28;20213;-62
2023/11/22 12:05:01;;;;;;;34.00;18.33;;;6.80;99.90;;;;;;5041580;28;20201;-62
2023/11/22 12:07:30;;;;;;;31.53;17.60;;;6.90;99.90;;;;;;5038104;28;20178;-63
2023/11/22 12:09:59;;;;;;;31.97;18.30;;;7.00;99.90;;;;;;5042939;28;20225;-63
2023/11/22 12:12:28;;;;;;;33.13;17.97;;;7.20;99.90;;;;;;5040094;28;20840;-63
2023/11/22 12:14:57;;;;;;;34.67;18.57;;;7.20;99.90;;;;;;5038224;28;20223;-63
2023/11/22 12:17:27;;;;;;;30.13;17.73;;;7.20;99.90;;;;;;5040545;28;20985;-63
2023/11/22 12:20:11;;;;;;;41.93;18.77;;;7.20;99.90;;;;;;5043675;28;20189;-63
2023/11/22 12:22:42;;;;;;;29.83;17.27;;;7.10;99.90;;;;;;5039466;28;20594;-62
2023/11/22 12:25:11;;;;;;;30.40;16.83;;;7.10;99.90;;;;;;5037960;28;20240;-63
2023/11/22 12:27:41;;;;;;;34.07;19.03;;;7.10;99.90;;;;;;5040838;28;20215;-63
2023/11/22 12:30:11;;;;;;;30.70;18.10;;;7.10;99.90;;;;;;5039634;28;20217;-63
2023/11/22 12:32:42;;;;;;;33.17;18.20;;;7.10;99.90;;;;;;5042317;28;20223;-63
2023/11/22 12:35:11;;;;;;;34.30;18.20;;;7.00;99.90;;;;;;5043270;28;20321;-63
2023/11/22 12:37:41;;;;;;;38.10;17.97;;;7.00;99.90;;;;;;5037492;28;20258;-63
2023/11/22 12:40:17;;;;;;;36.27;18.53;;;7.00;99.90;;;;;;5041920;28;20217;-63
2023/11/22 12:42:49;;;;;;;32.80;18.10;;;7.10;99.90;;;;;;5036138;28;21130;-63
2023/11/22 12:45:23;;;;;;;32.97;17.63;;;7.10;99.90;;;;;;5036609;28;20218;-62
2023/11/22 12:47:53;;;;;;;30.20;17.07;;;7.20;99.90;;;;;;5035339;28;20222;-62
2023/11/22 12:50:31;;;;;;;29.63;16.43;;;7.20;99.90;;;;;;5036347;28;20228;-63